Patton, CA (92369)

12:13 AM PDT on October 25, 2014 (GMT -0700)
North San Bernardino | Change Station
CLOSE
Current Station
Personal Weather Station
Location: San Bernardino, CA
Elevation: 1278 ft
Nearby Weather Stations

Elev 1278 ft 34.16 °N, 117.29 °W | Updated 6 seconds ago

Clear
Clear
65.2 °F
Feels Like 65.2 °F
N
0.0
Wind Variable Wind from NW
Gusts 0.0 mph

Today
High -- | Low -- °F
--% Chance of Precip.
Yesterday
High -- | Low -- °F
Precip. -- in
7:02 AM 6:02 PM
New Moon, 2% visible
Pressure 30.01 in
Visibility 10.0 miles
Clouds Clear
Dew Point 38 °F
Humidity 37%
Rainfall 0.00 in
Snow Depth Not available.
UV 0 out of 12
Pollen 4.10 out of 12
Ozone Good
PM2.5 Moderate
Flu Activity Sporadic
METAR KRIV 250658Z AUTO 00000KT 10SM CLR 16/01 A3005 RMK AO2 SLP163 T01620007

More Conditions Fewer Conditions

Pressure 30.01 in
Visibility 10.0 miles
Clouds Clear
Dew Point 38 °F
Humidity 37%
Rainfall 0.00 in
Snow Depth Not available.
UV 0 out of 12
Pollen 4.10 out of 12
Ozone Good
PM2.5 Moderate
Flu Activity Sporadic
METAR KRIV 250658Z AUTO 00000KT 10SM CLR 16/01 A3005 RMK AO2 SLP163 T01620007

More Conditions Fewer Conditions

10-Day Weather Forecast

Almanac

Astronomy

Oct. 25, 2014 Rise Set
Actual Time 7:02 AM PDT 6:02 PM PDT
Civil Twilight 6:36 AM PDT 6:28 PM PDT
Nautical Twilight 6:07 AM PDT 6:57 PM PDT
Astronomical Twilight 5:38 AM PDT 7:26 PM PDT
Moon 8:42 AM PDT 7:33 PM PDT
Length of Visible Light 11h 51m
Length of Day
11h 00m
Tomorrow will be 1m 56s shorter.
New Moon, 2% of the Moon is Illuminated
Today
New Moon
Oct 30
First Quarter
Nov 6
Full
Nov 14
Last Quarter
Nov 22
New

Community

WunderPhotos

Upload Photos

1,764,789 photos uploaded!

Nearby

Air Quality

  Air Quality AQ Index Pollutant
Yesterday Good
PM10
Yesterday Moderate
OZONE
Current Moderate
PM2.5
Current Good
OZONE
Saturday Good
PM10
Saturday Moderate
OZONE
Saturday Good
CO
Saturday Good
NO2

Snow Depth

Station Depth Elevation
Virginia Lakes Ridge 0 in 9200 ft
Leavitt Lake 1 in 9400 ft
Leavitt Meadows 1 in 7200 ft
Summit Meadow 1 in 9122 ft
Monitor Pass 1 in 8350 ft

Earthquake Activity

City Distance Mag. Time & Date
Brea, California 41 miles 2.9 3:35 PM PDT
2014-10-23
Brea, California 40 miles 2.8 3:34 PM PDT
2014-10-23
Corona, California 31 miles 2.5 1:09 PM PDT
2014-10-23
Delta, Mexico 164 miles 2.5 8:53 PM PDT
2014-10-21
Minimum magnitude displayed is 2.5.

Coastal Water Temperatures

Place Temperature
No Stations Reporting

Nearby Weather Stations